Raw Observation Data from the Tuscaloosa Airport

SPUS70 KWBC 162311
SPECI KTCL 162304Z A2990 RMK AO2 LTG DSNT ALQDS TSE2258 $
SAUS70 KWBC 162300 RRE
METAR KTCL 162253Z VCTS A2990 RMK AO2 LTG DSNT ALQDS TSB2154E34B35RAEMM
     SLPNO P0003 $
SPUS70 KWBC 162250
SPECI KTCL 162235Z VCTS A2991 RMK AO2 LTG DSNT ALQDS TSB2154E34B35RAEMM
     P0003 $
SPUS70 KWBC 162205
SPECI KTCL 162200Z 06006KT 4SM VCTS RA BR 13/12 A2990 RMK AO2 LTG DSNT
     ALQDS TSB2154 P0002
SPUS70 KWBC 162120
SPECI KTCL 162109Z 31010G20KT 4SM -TSRA BR 14/12 A2992 RMK AO2 WSHFT
     2048 LTG DSNT ALQDS TSE07B09 P0007 $
SPUS70 KWBC 162107
SPECI KTCL 162103Z 31014G24KT 3SM +TSRA BR 14/12 A2990 RMK AO2 WSHFT
     2048 LTG DSNT ALQDS P0006 $
SAUS70 KWBC 162100 RRG
METAR KTCL 162053Z 28015G26KT 250V310 2SM TSRA BR 16/14 A2992 RMK AO2 PK
     WND 27052/2027 WSHFT 2016 VIS 1 1/2V3 LTG DSNT ALQDS
     TSB18RAB29 SLP130 P0062 60062 T01610139 53014 $
SPUS70 KWBC 162043
SPECI KTCL 162041Z 25019G29KT 1/2SM +TSRA FG BKN015 BKN048 OVC085 16/15
     A2989 RMK AO2 PK WND 27052/2027 WSHFT 2016 LTG DSNT ALQDS
     TSB18RAB29 P0054
SPUS70 KWBC 162033
SPECI KTCL 162031Z 26029G52KT 1/4SM +TSRA FEW017 BKN047 BKN060 18/15
     A2991 RMK AO2 PK WND 27052/2027 WSHFT 2016 LTG DSNT SW-N
     TSB18RAB29 PRESRR P0027
SPUS70 KWBC 162027
SPECI KTCL 162024Z 18021G26KT 10SM VCTS SCT055 BKN085 25/16 A2973 RMK
     AO2 PK WND 17026/2023 LTG DSNT SW-N TSB18
SAUS70 KWBC 162000 RRD
METAR KTCL 161953Z 19019G25KT 10SM BKN060 BKN070 26/16 A2979 RMK AO2
     SLP084 T02560161
SAUS70 KWBC 161900 RRG
METAR KTCL 161853Z 18012G20KT 10SM SCT047 BKN060 26/17 A2984 RMK AO2 PK
     WND 19028/1824 SLP101 T02610172
SAUS70 KWBC 161800 RRI
METAR KTCL 161753Z 19014G20KT 10SM FEW038 BKN047 BKN055 26/17 A2988 RMK
     AO2 PRESFR SLP114 T02610172 10261 20206 58036
SAUS70 KWBC 161700 RRK
METAR KTCL 161653Z 19012KT 10SM SCT030 BKN038 24/18 A2993 RMK AO2 SLP133
     T02440183
SPUS70 KWBC 161625
SPECI KTCL 161608Z 19008KT 10SM SCT023 BKN030 BKN036 24/19 A2996 RMK
     AO2
SAUS70 KWBC 161600 RRF
METAR KTCL 161553Z 19011G19KT 10SM BKN020 BKN026 OVC031 23/19 A2997 RMK
     AO2 SLP147 T02330189
SPUS70 KWBC 161524
SPECI KTCL 161511Z 19012KT 10SM BKN016 22/19 A2998 RMK AO2
SAUS70 KWBC 161500 RRH
METAR KTCL 161453Z 19012G16KT 8SM BKN014 BKN047 22/19 A2998 RMK AO2
     SLP152 T02170189 51016
SPUS70 KWBC 161442
SPECI KTCL 161440Z 19009KT 8SM BKN014 BKN023 OVC045 22/19 A2998 RMK
     AO2
SAUS70 KWBC 161400 RRF
METAR KTCL 161353Z 19007KT 9SM FEW028 OVC039 21/18 A2998 RMK AO2 SLP149
     T02060183
SPUS70 KWBC 161323
SPECI KTCL 161315Z 18009KT 10SM FEW023 OVC035 21/18 A2996 RMK AO2
SAUS70 KWBC 161300 RRG
METAR KTCL 161253Z 19007KT 10SM FEW014 BKN025 OVC033 21/18 A2996 RMK AO2
     SLP143 T02060183
SAUS70 KWBC 161200 RRH
METAR KTCL 161153Z AUTO 19007KT 10SM FEW017 OVC031 21/18 A2994 RMK AO2
     SLP134 T02060183 10206 20183 56008
SAUS70 KWBC 161100 RRG
METAR KTCL 161053Z AUTO 18006KT 9SM BKN015 BKN022 OVC028 20/18 A2994 RMK
     AO2 SLP135 T02000183
SPUS70 KWBC 161028
SPECI KTCL 161025Z AUTO 18005KT 9SM BKN014 OVC022 20/18 A2994 RMK
     AO2
SAUS70 KWBC 161000 RRG
METAR KTCL 160953Z AUTO VRB06KT 9SM OVC026 20/18 A2994 RMK AO2 SLP137
     T02000183
SAUS70 KWBC 160900 RRI
METAR KTCL 160853Z AUTO 19005KT 8SM SCT019 OVC026 19/18 A2996 RMK AO2
     SLP142 T01940183 56008
SAUS70 KWBC 160800 RRG
METAR KTCL 160753Z AUTO 19007KT 9SM OVC019 20/18 A2996 RMK AO2 SLP143
     T02000183
SPUS70 KWBC 160732
SPECI KTCL 160730Z AUTO 19008KT 9SM OVC015 20/18 A2997 RMK AO2
SAUS70 KWBC 160700 RRF
METAR KTCL 160653Z AUTO 19008KT 10SM OVC013 19/18 A2998 RMK AO2 SLP148
     T01940183
SPUS70 KWBC 160646
SPECI KTCL 160643Z AUTO 19007KT 9SM BKN013 19/18 A2998 RMK AO2
SPUS70 KWBC 160637
SPECI KTCL 160636Z AUTO 20006KT 10SM BKN015 19/18 A2998 RMK AO2
SAUS70 KWBC 160600 RRI
METAR KTCL 160553Z AUTO 20004KT 10SM CLR 18/17 A2998 RMK AO2 SLP151
     T01830167 10239 20167 402610167 50001
SAUS70 KWBC 160500 RRG
METAR KTCL 160453Z AUTO 00000KT 10SM CLR 18/16 A2998 RMK AO2 SLP151
     T01780156
SAUS70 KWBC 160400 RRG
METAR KTCL 160353Z AUTO 00000KT 10SM FEW045 18/16 A2998 RMK AO2 SLP151
     T01780161
SAUS70 KWBC 160300 RRH
METAR KTCL 160253Z AUTO 00000KT 10SM OVC070 19/17 A2998 RMK AO2 SLP150
     T01890167 51014
SAUS70 KWBC 160200 RRG
METAR KTCL 160153Z 00000KT 10SM SCT060 19/16 A2997 RMK AO2 SLP145
     T01890156
SAUS70 KWBC 160100 RRG
METAR KTCL 160053Z 18004KT 10SM CLR 23/16 A2995 RMK AO2 SLP141
     T02280161
SAUS70 KWBC 160000 RRH
METAR KTCL 152353Z 18006KT 10SM CLR 24/17 A2994 RMK AO2 SLP135 T02390167
     10261 20239 55002

USA.gov is the U.S. government's official web portal to all federal, state and local government web resources and services.